sensor_id;sensor_type;location;lat;lon;timestamp;P1;durP1;ratioP1;P2;durP2;ratioP2
69991;SDS011;57332;51.320;-0.580;2022-12-18T00:02:08;28.85;;;13.88;;
69991;SDS011;57332;51.320;-0.580;2022-12-18T00:04:35;25.40;;;11.35;;
69991;SDS011;57332;51.320;-0.580;2022-12-18T00:07:02;26.38;;;12.45;;
69991;SDS011;57332;51.320;-0.580;2022-12-18T00:09:29;30.23;;;12.00;;
69991;SDS011;57332;51.320;-0.580;2022-12-18T00:12:05;29.60;;;13.32;;
69991;SDS011;57332;51.320;-0.580;2022-12-18T00:14:41;23.95;;;12.38;;
69991;SDS011;57332;51.320;-0.580;2022-12-18T00:17:08;26.27;;;11.48;;
69991;SDS011;57332;51.320;-0.580;2022-12-18T00:19:35;28.30;;;11.02;;
69991;SDS011;57332;51.320;-0.580;2022-12-18T00:22:02;27.13;;;13.00;;
69991;SDS011;57332;51.320;-0.580;2022-12-18T00:24:29;25.20;;;12.23;;
69991;SDS011;57332;51.320;-0.580;2022-12-18T00:26:56;23.90;;;11.35;;
69991;SDS011;57332;51.320;-0.580;2022-12-18T00:29:23;21.92;;;9.43;;
69991;SDS011;57332;51.320;-0.580;2022-12-18T00:31:49;21.02;;;9.63;;
69991;SDS011;57332;51.320;-0.580;2022-12-18T00:34:16;25.55;;;11.43;;
69991;SDS011;57332;51.320;-0.580;2022-12-18T00:36:43;28.80;;;10.43;;
69991;SDS011;57332;51.320;-0.580;2022-12-18T00:39:10;24.50;;;10.77;;
69991;SDS011;57332;51.320;-0.580;2022-12-18T00:41:38;25.85;;;10.75;;
69991;SDS011;57332;51.320;-0.580;2022-12-18T00:44:23;21.58;;;10.73;;
69991;SDS011;57332;51.320;-0.580;2022-12-18T00:46:50;28.67;;;11.63;;
69991;SDS011;57332;51.320;-0.580;2022-12-18T00:49:18;28.52;;;12.20;;
69991;SDS011;57332;51.320;-0.580;2022-12-18T00:51:46;26.95;;;12.05;;
69991;SDS011;57332;51.320;-0.580;2022-12-18T00:54:13;21.85;;;10.10;;
69991;SDS011;57332;51.320;-0.580;2022-12-18T00:56:39;25.50;;;12.15;;
69991;SDS011;57332;51.320;-0.580;2022-12-18T00:59:15;25.08;;;11.35;;
69991;SDS011;57332;51.320;-0.580;2022-12-18T01:01:42;25.63;;;10.43;;
69991;SDS011;57332;51.320;-0.580;2022-12-18T01:04:09;26.05;;;10.52;;
69991;SDS011;57332;51.320;-0.580;2022-12-18T01:06:36;21.95;;;9.48;;
69991;SDS011;57332;51.320;-0.580;2022-12-18T01:09:03;24.67;;;10.80;;
69991;SDS011;57332;51.320;-0.580;2022-12-18T01:11:30;23.25;;;10.13;;
69991;SDS011;57332;51.320;-0.580;2022-12-18T01:13:57;23.90;;;10.75;;
69991;SDS011;57332;51.320;-0.580;2022-12-18T01:16:24;23.58;;;11.02;;
69991;SDS011;57332;51.320;-0.580;2022-12-18T01:18:51;25.90;;;11.05;;
69991;SDS011;57332;51.320;-0.580;2022-12-18T01:21:19;19.10;;;8.43;;
69991;SDS011;57332;51.320;-0.580;2022-12-18T01:23:46;20.85;;;9.52;;
69991;SDS011;57332;51.320;-0.580;2022-12-18T01:26:14;20.77;;;8.55;;
69991;SDS011;57332;51.320;-0.580;2022-12-18T01:28:42;23.25;;;9.98;;
69991;SDS011;57332;51.320;-0.580;2022-12-18T01:31:14;27.35;;;10.70;;
69991;SDS011;57332;51.320;-0.580;2022-12-18T01:33:41;21.75;;;7.97;;
69991;SDS011;57332;51.320;-0.580;2022-12-18T01:36:13;16.15;;;8.00;;
69991;SDS011;57332;51.320;-0.580;2022-12-18T01:38:40;20.05;;;7.18;;
69991;SDS011;57332;51.320;-0.580;2022-12-18T01:41:07;21.20;;;9.02;;
69991;SDS011;57332;51.320;-0.580;2022-12-18T01:46:14;17.27;;;6.95;;
69991;SDS011;57332;51.320;-0.580;2022-12-18T01:48:41;21.65;;;8.23;;
69991;SDS011;57332;51.320;-0.580;2022-12-18T01:51:09;19.10;;;8.93;;
69991;SDS011;57332;51.320;-0.580;2022-12-18T01:53:37;22.20;;;9.00;;
69991;SDS011;57332;51.320;-0.580;2022-12-18T01:56:06;23.10;;;9.32;;
69991;SDS011;57332;51.320;-0.580;2022-12-18T01:58:45;25.13;;;10.65;;
69991;SDS011;57332;51.320;-0.580;2022-12-18T02:01:14;24.70;;;8.98;;
69991;SDS011;57332;51.320;-0.580;2022-12-18T02:03:41;22.00;;;9.02;;
69991;SDS011;57332;51.320;-0.580;2022-12-18T02:06:16;22.08;;;9.05;;
69991;SDS011;57332;51.320;-0.580;2022-12-18T02:08:48;19.48;;;8.88;;
69991;SDS011;57332;51.320;-0.580;2022-12-18T02:13:53;23.83;;;9.95;;
69991;SDS011;57332;51.320;-0.580;2022-12-18T02:18:54;18.42;;;7.90;;
69991;SDS011;57332;51.320;-0.580;2022-12-18T02:21:32;21.83;;;9.27;;
69991;SDS011;57332;51.320;-0.580;2022-12-18T02:26:30;22.65;;;9.13;;
69991;SDS011;57332;51.320;-0.580;2022-12-18T02:29:03;22.45;;;8.65;;
69991;SDS011;57332;51.320;-0.580;2022-12-18T02:31:35;22.63;;;8.77;;
69991;SDS011;57332;51.320;-0.580;2022-12-18T02:34:04;24.45;;;8.65;;
69991;SDS011;57332;51.320;-0.580;2022-12-18T02:36:32;23.60;;;9.55;;
69991;SDS011;57332;51.320;-0.580;2022-12-18T02:39:00;22.80;;;9.73;;
69991;SDS011;57332;51.320;-0.580;2022-12-18T02:41:28;22.33;;;8.63;;
69991;SDS011;57332;51.320;-0.580;2022-12-18T02:43:56;18.60;;;9.05;;
69991;SDS011;57332;51.320;-0.580;2022-12-18T02:46:28;19.55;;;7.38;;
69991;SDS011;57332;51.320;-0.580;2022-12-18T02:49:00;19.95;;;7.65;;
69991;SDS011;57332;51.320;-0.580;2022-12-18T02:51:32;24.65;;;8.30;;
69991;SDS011;57332;51.320;-0.580;2022-12-18T02:54:07;22.48;;;7.93;;
69991;SDS011;57332;51.320;-0.580;2022-12-18T02:56:36;25.13;;;9.77;;
69991;SDS011;57332;51.320;-0.580;2022-12-18T02:59:09;19.17;;;7.45;;
69991;SDS011;57332;51.320;-0.580;2022-12-18T03:01:49;22.17;;;8.52;;
69991;SDS011;57332;51.320;-0.580;2022-12-18T03:04:23;20.30;;;8.63;;
69991;SDS011;57332;51.320;-0.580;2022-12-18T03:06:54;24.75;;;7.55;;
69991;SDS011;57332;51.320;-0.580;2022-12-18T03:09:24;19.77;;;7.43;;
69991;SDS011;57332;51.320;-0.580;2022-12-18T03:11:54;21.55;;;8.63;;
69991;SDS011;57332;51.320;-0.580;2022-12-18T03:14:41;23.00;;;7.03;;
69991;SDS011;57332;51.320;-0.580;2022-12-18T03:17:11;21.95;;;7.53;;
69991;SDS011;57332;51.320;-0.580;2022-12-18T03:19:40;17.30;;;6.57;;
69991;SDS011;57332;51.320;-0.580;2022-12-18T03:22:08;23.23;;;7.50;;
69991;SDS011;57332;51.320;-0.580;2022-12-18T03:24:36;20.55;;;7.75;;
69991;SDS011;57332;51.320;-0.580;2022-12-18T03:27:06;25.00;;;8.00;;
69991;SDS011;57332;51.320;-0.580;2022-12-18T03:29:37;22.95;;;7.53;;
69991;SDS011;57332;51.320;-0.580;2022-12-18T03:32:06;20.73;;;8.57;;
69991;SDS011;57332;51.320;-0.580;2022-12-18T03:34:35;24.60;;;8.68;;
69991;SDS011;57332;51.320;-0.580;2022-12-18T03:37:04;23.63;;;8.70;;
69991;SDS011;57332;51.320;-0.580;2022-12-18T03:39:32;28.20;;;9.80;;
69991;SDS011;57332;51.320;-0.580;2022-12-18T03:42:23;32.95;;;10.50;;
69991;SDS011;57332;51.320;-0.580;2022-12-18T03:47:30;24.33;;;8.93;;
69991;SDS011;57332;51.320;-0.580;2022-12-18T03:52:41;26.33;;;8.95;;
69991;SDS011;57332;51.320;-0.580;2022-12-18T03:55:11;28.75;;;8.82;;
69991;SDS011;57332;51.320;-0.580;2022-12-18T03:57:38;26.90;;;9.40;;
69991;SDS011;57332;51.320;-0.580;2022-12-18T04:00:09;26.77;;;9.80;;
69991;SDS011;57332;51.320;-0.580;2022-12-18T04:02:37;21.85;;;8.38;;
69991;SDS011;57332;51.320;-0.580;2022-12-18T04:05:05;23.45;;;8.38;;
69991;SDS011;57332;51.320;-0.580;2022-12-18T04:07:33;26.23;;;8.23;;
69991;SDS011;57332;51.320;-0.580;2022-12-18T04:10:01;24.20;;;8.95;;
69991;SDS011;57332;51.320;-0.580;2022-12-18T04:12:29;20.35;;;8.30;;
69991;SDS011;57332;51.320;-0.580;2022-12-18T04:14:56;25.45;;;8.30;;
69991;SDS011;57332;51.320;-0.580;2022-12-18T04:17:23;27.85;;;9.57;;
69991;SDS011;57332;51.320;-0.580;2022-12-18T04:19:50;22.98;;;8.10;;
69991;SDS011;57332;51.320;-0.580;2022-12-18T04:22:17;23.20;;;8.60;;
69991;SDS011;57332;51.320;-0.580;2022-12-18T04:24:44;24.50;;;8.48;;
69991;SDS011;57332;51.320;-0.580;2022-12-18T04:27:11;20.95;;;8.20;;
69991;SDS011;57332;51.320;-0.580;2022-12-18T04:29:38;22.52;;;8.65;;
69991;SDS011;57332;51.320;-0.580;2022-12-18T04:32:04;21.40;;;8.38;;
69991;SDS011;57332;51.320;-0.580;2022-12-18T04:34:31;27.33;;;8.77;;
69991;SDS011;57332;51.320;-0.580;2022-12-18T04:36:58;21.27;;;8.65;;
69991;SDS011;57332;51.320;-0.580;2022-12-18T04:39:25;21.23;;;8.85;;
69991;SDS011;57332;51.320;-0.580;2022-12-18T04:41:52;21.27;;;8.27;;
69991;SDS011;57332;51.320;-0.580;2022-12-18T04:44:19;22.95;;;8.70;;
69991;SDS011;57332;51.320;-0.580;2022-12-18T04:46:45;20.73;;;7.78;;
69991;SDS011;57332;51.320;-0.580;2022-12-18T04:49:12;16.83;;;7.97;;
69991;SDS011;57332;51.320;-0.580;2022-12-18T04:51:39;20.10;;;7.55;;
69991;SDS011;57332;51.320;-0.580;2022-12-18T04:54:06;21.95;;;6.60;;
69991;SDS011;57332;51.320;-0.580;2022-12-18T04:56:33;16.27;;;5.72;;
69991;SDS011;57332;51.320;-0.580;2022-12-18T04:59:00;14.77;;;5.75;;
69991;SDS011;57332;51.320;-0.580;2022-12-18T05:01:26;14.73;;;4.60;;
69991;SDS011;57332;51.320;-0.580;2022-12-18T05:04:00;20.23;;;5.75;;
69991;SDS011;57332;51.320;-0.580;2022-12-18T05:06:27;13.88;;;4.65;;
69991;SDS011;57332;51.320;-0.580;2022-12-18T05:08:54;15.77;;;5.38;;
69991;SDS011;57332;51.320;-0.580;2022-12-18T05:11:21;17.45;;;5.28;;
69991;SDS011;57332;51.320;-0.580;2022-12-18T05:13:48;13.55;;;4.50;;
69991;SDS011;57332;51.320;-0.580;2022-12-18T05:16:15;14.48;;;5.68;;
69991;SDS011;57332;51.320;-0.580;2022-12-18T05:18:42;14.00;;;4.63;;
69991;SDS011;57332;51.320;-0.580;2022-12-18T05:21:09;15.30;;;5.45;;
69991;SDS011;57332;51.320;-0.580;2022-12-18T05:23:36;16.25;;;5.55;;
69991;SDS011;57332;51.320;-0.580;2022-12-18T05:26:04;17.77;;;5.82;;
69991;SDS011;57332;51.320;-0.580;2022-12-18T05:28:31;13.70;;;4.90;;
69991;SDS011;57332;51.320;-0.580;2022-12-18T05:30:59;16.08;;;5.40;;
69991;SDS011;57332;51.320;-0.580;2022-12-18T05:33:28;14.38;;;4.47;;
69991;SDS011;57332;51.320;-0.580;2022-12-18T05:35:56;14.38;;;4.90;;
69991;SDS011;57332;51.320;-0.580;2022-12-18T05:38:23;15.55;;;5.50;;
69991;SDS011;57332;51.320;-0.580;2022-12-18T05:40:50;16.10;;;5.88;;
69991;SDS011;57332;51.320;-0.580;2022-12-18T05:43:17;13.88;;;5.70;;
69991;SDS011;57332;51.320;-0.580;2022-12-18T05:45:47;14.60;;;5.00;;
69991;SDS011;57332;51.320;-0.580;2022-12-18T05:48:14;15.65;;;5.38;;
69991;SDS011;57332;51.320;-0.580;2022-12-18T05:50:42;14.80;;;5.90;;
69991;SDS011;57332;51.320;-0.580;2022-12-18T05:53:12;16.48;;;5.20;;
69991;SDS011;57332;51.320;-0.580;2022-12-18T05:55:39;16.50;;;5.38;;
69991;SDS011;57332;51.320;-0.580;2022-12-18T05:58:07;12.23;;;4.25;;
69991;SDS011;57332;51.320;-0.580;2022-12-18T06:00:36;13.90;;;6.03;;
69991;SDS011;57332;51.320;-0.580;2022-12-18T06:03:07;17.15;;;5.38;;
69991;SDS011;57332;51.320;-0.580;2022-12-18T06:05:35;17.15;;;5.65;;
69991;SDS011;57332;51.320;-0.580;2022-12-18T06:08:02;15.07;;;5.13;;
69991;SDS011;57332;51.320;-0.580;2022-12-18T06:10:29;13.50;;;4.65;;
69991;SDS011;57332;51.320;-0.580;2022-12-18T06:12:55;13.80;;;5.10;;
69991;SDS011;57332;51.320;-0.580;2022-12-18T06:15:22;14.45;;;5.30;;
69991;SDS011;57332;51.320;-0.580;2022-12-18T06:17:49;17.55;;;6.00;;
69991;SDS011;57332;51.320;-0.580;2022-12-18T06:20:16;13.98;;;4.90;;
69991;SDS011;57332;51.320;-0.580;2022-12-18T06:22:43;14.77;;;4.90;;
69991;SDS011;57332;51.320;-0.580;2022-12-18T06:25:10;14.20;;;5.00;;
69991;SDS011;57332;51.320;-0.580;2022-12-18T06:27:37;14.80;;;5.80;;
69991;SDS011;57332;51.320;-0.580;2022-12-18T06:30:04;17.02;;;6.13;;
69991;SDS011;57332;51.320;-0.580;2022-12-18T06:32:31;15.68;;;5.82;;
69991;SDS011;57332;51.320;-0.580;2022-12-18T06:34:58;15.50;;;5.50;;
69991;SDS011;57332;51.320;-0.580;2022-12-18T06:37:25;15.90;;;5.47;;
69991;SDS011;57332;51.320;-0.580;2022-12-18T06:39:53;13.80;;;5.22;;
69991;SDS011;57332;51.320;-0.580;2022-12-18T06:42:20;15.40;;;6.10;;
69991;SDS011;57332;51.320;-0.580;2022-12-18T06:44:46;17.08;;;6.13;;
69991;SDS011;57332;51.320;-0.580;2022-12-18T06:47:13;21.40;;;6.35;;
69991;SDS011;57332;51.320;-0.580;2022-12-18T06:49:40;17.13;;;6.78;;
69991;SDS011;57332;51.320;-0.580;2022-12-18T06:52:07;17.38;;;6.97;;
69991;SDS011;57332;51.320;-0.580;2022-12-18T06:54:34;18.17;;;6.28;;
69991;SDS011;57332;51.320;-0.580;2022-12-18T06:57:01;18.10;;;6.28;;
69991;SDS011;57332;51.320;-0.580;2022-12-18T06:59:27;17.95;;;6.80;;
69991;SDS011;57332;51.320;-0.580;2022-12-18T07:01:54;20.77;;;6.15;;
69991;SDS011;57332;51.320;-0.580;2022-12-18T07:04:22;17.73;;;5.57;;
69991;SDS011;57332;51.320;-0.580;2022-12-18T07:06:49;15.80;;;5.72;;
69991;SDS011;57332;51.320;-0.580;2022-12-18T07:09:15;13.90;;;6.18;;
69991;SDS011;57332;51.320;-0.580;2022-12-18T07:11:42;13.25;;;6.05;;
69991;SDS011;57332;51.320;-0.580;2022-12-18T07:14:09;17.40;;;6.32;;
69991;SDS011;57332;51.320;-0.580;2022-12-18T07:16:36;16.52;;;5.65;;
69991;SDS011;57332;51.320;-0.580;2022-12-18T07:19:03;13.77;;;5.47;;
69991;SDS011;57332;51.320;-0.580;2022-12-18T07:21:30;15.52;;;6.38;;
69991;SDS011;57332;51.320;-0.580;2022-12-18T07:23:56;14.38;;;5.70;;
69991;SDS011;57332;51.320;-0.580;2022-12-18T07:26:23;16.08;;;5.65;;
69991;SDS011;57332;51.320;-0.580;2022-12-18T07:28:50;14.68;;;5.57;;
69991;SDS011;57332;51.320;-0.580;2022-12-18T07:31:21;11.07;;;4.90;;
69991;SDS011;57332;51.320;-0.580;2022-12-18T07:33:48;14.30;;;5.93;;
69991;SDS011;57332;51.320;-0.580;2022-12-18T07:36:16;13.35;;;5.47;;
69991;SDS011;57332;51.320;-0.580;2022-12-18T07:38:42;15.80;;;5.60;;
69991;SDS011;57332;51.320;-0.580;2022-12-18T07:41:10;14.73;;;5.53;;
69991;SDS011;57332;51.320;-0.580;2022-12-18T07:43:37;16.40;;;6.00;;
69991;SDS011;57332;51.320;-0.580;2022-12-18T07:46:05;14.32;;;5.45;;
69991;SDS011;57332;51.320;-0.580;2022-12-18T07:48:33;14.10;;;5.15;;
69991;SDS011;57332;51.320;-0.580;2022-12-18T07:51:00;13.23;;;5.03;;
69991;SDS011;57332;51.320;-0.580;2022-12-18T07:53:28;12.68;;;5.20;;
69991;SDS011;57332;51.320;-0.580;2022-12-18T07:55:55;13.02;;;4.68;;
69991;SDS011;57332;51.320;-0.580;2022-12-18T07:58:43;12.20;;;4.47;;
69991;SDS011;57332;51.320;-0.580;2022-12-18T08:01:11;14.80;;;4.38;;
69991;SDS011;57332;51.320;-0.580;2022-12-18T08:03:38;14.57;;;4.70;;
69991;SDS011;57332;51.320;-0.580;2022-12-18T08:06:08;13.00;;;4.68;;
69991;SDS011;57332;51.320;-0.580;2022-12-18T08:08:36;13.00;;;4.45;;
69991;SDS011;57332;51.320;-0.580;2022-12-18T08:11:03;14.35;;;5.78;;
69991;SDS011;57332;51.320;-0.580;2022-12-18T08:13:30;14.02;;;4.82;;
69991;SDS011;57332;51.320;-0.580;2022-12-18T08:16:04;11.02;;;4.20;;
69991;SDS011;57332;51.320;-0.580;2022-12-18T08:18:35;11.65;;;4.70;;
69991;SDS011;57332;51.320;-0.580;2022-12-18T08:21:18;13.55;;;5.32;;
69991;SDS011;57332;51.320;-0.580;2022-12-18T08:23:47;13.23;;;4.50;;
69991;SDS011;57332;51.320;-0.580;2022-12-18T08:26:15;14.65;;;5.30;;
69991;SDS011;57332;51.320;-0.580;2022-12-18T08:28:42;12.50;;;5.22;;
69991;SDS011;57332;51.320;-0.580;2022-12-18T08:31:09;13.15;;;5.22;;
69991;SDS011;57332;51.320;-0.580;2022-12-18T08:33:37;11.25;;;4.63;;
69991;SDS011;57332;51.320;-0.580;2022-12-18T08:36:05;17.75;;;6.32;;
69991;SDS011;57332;51.320;-0.580;2022-12-18T08:38:32;10.80;;;4.45;;
69991;SDS011;57332;51.320;-0.580;2022-12-18T08:41:06;12.70;;;4.90;;
69991;SDS011;57332;51.320;-0.580;2022-12-18T08:43:33;13.95;;;5.20;;
69991;SDS011;57332;51.320;-0.580;2022-12-18T08:46:19;10.48;;;4.72;;
69991;SDS011;57332;51.320;-0.580;2022-12-18T08:48:47;15.52;;;5.50;;
69991;SDS011;57332;51.320;-0.580;2022-12-18T08:51:15;12.38;;;4.95;;
69991;SDS011;57332;51.320;-0.580;2022-12-18T08:53:43;14.75;;;5.85;;
69991;SDS011;57332;51.320;-0.580;2022-12-18T08:56:11;13.35;;;5.00;;
69991;SDS011;57332;51.320;-0.580;2022-12-18T08:58:37;16.00;;;5.70;;
69991;SDS011;57332;51.320;-0.580;2022-12-18T09:01:05;14.23;;;4.72;;
69991;SDS011;57332;51.320;-0.580;2022-12-18T09:03:32;14.10;;;5.85;;
69991;SDS011;57332;51.320;-0.580;2022-12-18T09:05:59;13.85;;;5.68;;
69991;SDS011;57332;51.320;-0.580;2022-12-18T09:08:26;16.45;;;5.53;;
69991;SDS011;57332;51.320;-0.580;2022-12-18T09:10:53;12.90;;;5.70;;
69991;SDS011;57332;51.320;-0.580;2022-12-18T09:13:20;13.43;;;5.28;;
69991;SDS011;57332;51.320;-0.580;2022-12-18T09:15:48;14.90;;;6.15;;
69991;SDS011;57332;51.320;-0.580;2022-12-18T09:18:17;12.80;;;5.15;;
69991;SDS011;57332;51.320;-0.580;2022-12-18T09:20:44;15.50;;;6.10;;
69991;SDS011;57332;51.320;-0.580;2022-12-18T09:23:11;14.98;;;5.80;;
69991;SDS011;57332;51.320;-0.580;2022-12-18T09:25:38;15.50;;;5.72;;
69991;SDS011;57332;51.320;-0.580;2022-12-18T09:28:09;17.38;;;6.60;;
69991;SDS011;57332;51.320;-0.580;2022-12-18T09:30:39;15.52;;;5.78;;
69991;SDS011;57332;51.320;-0.580;2022-12-18T09:33:07;15.25;;;5.85;;
69991;SDS011;57332;51.320;-0.580;2022-12-18T09:35:37;11.60;;;5.40;;
69991;SDS011;57332;51.320;-0.580;2022-12-18T09:38:05;12.68;;;5.72;;
69991;SDS011;57332;51.320;-0.580;2022-12-18T09:40:35;15.77;;;6.47;;
69991;SDS011;57332;51.320;-0.580;2022-12-18T09:43:04;17.75;;;6.07;;
69991;SDS011;57332;51.320;-0.580;2022-12-18T09:45:43;16.67;;;6.07;;
69991;SDS011;57332;51.320;-0.580;2022-12-18T09:48:16;14.10;;;6.20;;
69991;SDS011;57332;51.320;-0.580;2022-12-18T09:50:45;15.25;;;5.60;;
69991;SDS011;57332;51.320;-0.580;2022-12-18T09:53:17;13.98;;;6.07;;
69991;SDS011;57332;51.320;-0.580;2022-12-18T09:55:45;14.98;;;5.88;;
69991;SDS011;57332;51.320;-0.580;2022-12-18T09:58:15;14.70;;;6.53;;
69991;SDS011;57332;51.320;-0.580;2022-12-18T10:00:43;15.43;;;6.10;;
69991;SDS011;57332;51.320;-0.580;2022-12-18T10:03:12;14.65;;;6.05;;
69991;SDS011;57332;51.320;-0.580;2022-12-18T10:05:46;15.35;;;7.00;;
69991;SDS011;57332;51.320;-0.580;2022-12-18T10:10:46;15.90;;;5.57;;
69991;SDS011;57332;51.320;-0.580;2022-12-18T10:13:33;13.45;;;5.68;;
69991;SDS011;57332;51.320;-0.580;2022-12-18T10:16:27;16.33;;;6.50;;
69991;SDS011;57332;51.320;-0.580;2022-12-18T10:21:34;16.65;;;6.88;;
69991;SDS011;57332;51.320;-0.580;2022-12-18T10:24:26;16.90;;;6.80;;
69991;SDS011;57332;51.320;-0.580;2022-12-18T10:26:55;15.32;;;7.22;;
69991;SDS011;57332;51.320;-0.580;2022-12-18T10:29:25;14.95;;;6.15;;
69991;SDS011;57332;51.320;-0.580;2022-12-18T10:31:52;16.58;;;7.35;;
69991;SDS011;57332;51.320;-0.580;2022-12-18T10:34:19;19.23;;;7.70;;
69991;SDS011;57332;51.320;-0.580;2022-12-18T10:36:47;17.23;;;7.03;;
69991;SDS011;57332;51.320;-0.580;2022-12-18T10:39:18;19.92;;;6.95;;
69991;SDS011;57332;51.320;-0.580;2022-12-18T10:41:45;17.42;;;6.35;;
69991;SDS011;57332;51.320;-0.580;2022-12-18T10:46:39;16.17;;;6.88;;
69991;SDS011;57332;51.320;-0.580;2022-12-18T10:49:17;16.55;;;7.22;;
69991;SDS011;57332;51.320;-0.580;2022-12-18T10:51:44;16.63;;;7.45;;
69991;SDS011;57332;51.320;-0.580;2022-12-18T10:54:16;17.38;;;7.60;;
69991;SDS011;57332;51.320;-0.580;2022-12-18T10:59:11;15.48;;;6.43;;
69991;SDS011;57332;51.320;-0.580;2022-12-18T11:02:22;17.38;;;6.93;;
69991;SDS011;57332;51.320;-0.580;2022-12-18T11:04:32;20.95;;;6.78;;
69991;SDS011;57332;51.320;-0.580;2022-12-18T11:07:05;16.20;;;6.63;;
69991;SDS011;57332;51.320;-0.580;2022-12-18T11:09:34;18.67;;;6.97;;
69991;SDS011;57332;51.320;-0.580;2022-12-18T11:12:02;19.13;;;8.05;;
69991;SDS011;57332;51.320;-0.580;2022-12-18T11:14:34;21.48;;;7.43;;
69991;SDS011;57332;51.320;-0.580;2022-12-18T11:19:53;16.80;;;7.65;;
69991;SDS011;57332;51.320;-0.580;2022-12-18T11:22:22;20.17;;;8.00;;
69991;SDS011;57332;51.320;-0.580;2022-12-18T11:24:57;17.75;;;7.57;;
69991;SDS011;57332;51.320;-0.580;2022-12-18T11:27:48;18.45;;;8.18;;
69991;SDS011;57332;51.320;-0.580;2022-12-18T11:30:29;20.48;;;9.10;;
69991;SDS011;57332;51.320;-0.580;2022-12-18T11:38:05;20.63;;;8.27;;
69991;SDS011;57332;51.320;-0.580;2022-12-18T11:40:34;21.17;;;9.27;;
69991;SDS011;57332;51.320;-0.580;2022-12-18T11:43:08;22.08;;;8.27;;
69991;SDS011;57332;51.320;-0.580;2022-12-18T11:45:53;22.23;;;8.32;;
69991;SDS011;57332;51.320;-0.580;2022-12-18T11:48:24;20.05;;;8.05;;
69991;SDS011;57332;51.320;-0.580;2022-12-18T11:50:57;18.48;;;7.90;;
69991;SDS011;57332;51.320;-0.580;2022-12-18T11:53:25;19.27;;;8.10;;
69991;SDS011;57332;51.320;-0.580;2022-12-18T11:56:11;19.77;;;8.55;;
69991;SDS011;57332;51.320;-0.580;2022-12-18T12:01:35;22.92;;;8.65;;
69991;SDS011;57332;51.320;-0.580;2022-12-18T12:06:41;27.02;;;9.35;;
69991;SDS011;57332;51.320;-0.580;2022-12-18T12:09:26;24.80;;;10.50;;
69991;SDS011;57332;51.320;-0.580;2022-12-18T12:25:52;27.10;;;12.02;;
69991;SDS011;57332;51.320;-0.580;2022-12-18T12:30:29;23.30;;;8.57;;
69991;SDS011;57332;51.320;-0.580;2022-12-18T12:40:30;25.35;;;10.73;;
69991;SDS011;57332;51.320;-0.580;2022-12-18T12:43:20;23.35;;;9.90;;
69991;SDS011;57332;51.320;-0.580;2022-12-18T12:46:22;22.02;;;9.15;;
69991;SDS011;57332;51.320;-0.580;2022-12-18T12:51:22;20.63;;;9.52;;
69991;SDS011;57332;51.320;-0.580;2022-12-18T12:53:50;18.27;;;8.98;;
69991;SDS011;57332;51.320;-0.580;2022-12-18T12:56:19;19.90;;;8.60;;
69991;SDS011;57332;51.320;-0.580;2022-12-18T12:58:49;21.52;;;8.60;;
69991;SDS011;57332;51.320;-0.580;2022-12-18T13:01:32;20.50;;;8.02;;
69991;SDS011;57332;51.320;-0.580;2022-12-18T13:09:10;15.82;;;6.80;;
69991;SDS011;57332;51.320;-0.580;2022-12-18T13:11:42;16.80;;;6.82;;
69991;SDS011;57332;51.320;-0.580;2022-12-18T13:14:37;13.88;;;6.00;;
69991;SDS011;57332;51.320;-0.580;2022-12-18T13:17:23;15.45;;;5.68;;
69991;SDS011;57332;51.320;-0.580;2022-12-18T13:20:07;17.60;;;6.60;;
69991;SDS011;57332;51.320;-0.580;2022-12-18T13:22:37;15.80;;;6.40;;
69991;SDS011;57332;51.320;-0.580;2022-12-18T13:28:11;12.43;;;5.13;;
69991;SDS011;57332;51.320;-0.580;2022-12-18T13:33:30;15.27;;;5.90;;
69991;SDS011;57332;51.320;-0.580;2022-12-18T13:36:09;12.93;;;4.82;;
69991;SDS011;57332;51.320;-0.580;2022-12-18T13:38:39;11.80;;;5.63;;
69991;SDS011;57332;51.320;-0.580;2022-12-18T13:43:45;11.55;;;5.53;;
69991;SDS011;57332;51.320;-0.580;2022-12-18T13:46:23;10.50;;;5.57;;
69991;SDS011;57332;51.320;-0.580;2022-12-18T13:51:32;11.43;;;4.95;;
69991;SDS011;57332;51.320;-0.580;2022-12-18T13:54:01;11.48;;;4.95;;
69991;SDS011;57332;51.320;-0.580;2022-12-18T13:56:32;10.93;;;5.20;;
69991;SDS011;57332;51.320;-0.580;2022-12-18T13:59:11;12.95;;;5.47;;
69991;SDS011;57332;51.320;-0.580;2022-12-18T14:04:16;10.07;;;5.00;;
69991;SDS011;57332;51.320;-0.580;2022-12-18T14:06:45;10.65;;;4.82;;
69991;SDS011;57332;51.320;-0.580;2022-12-18T14:09:24;10.43;;;5.05;;
69991;SDS011;57332;51.320;-0.580;2022-12-18T14:11:53;11.95;;;4.85;;
69991;SDS011;57332;51.320;-0.580;2022-12-18T14:14:45;11.90;;;4.32;;
69991;SDS011;57332;51.320;-0.580;2022-12-18T14:17:14;9.75;;;4.70;;
69991;SDS011;57332;51.320;-0.580;2022-12-18T14:19:43;8.95;;;4.53;;
69991;SDS011;57332;51.320;-0.580;2022-12-18T14:22:15;10.80;;;3.90;;
69991;SDS011;57332;51.320;-0.580;2022-12-18T14:24:43;10.30;;;4.63;;
69991;SDS011;57332;51.320;-0.580;2022-12-18T14:27:27;9.40;;;4.20;;
69991;SDS011;57332;51.320;-0.580;2022-12-18T14:29:54;9.77;;;4.65;;
69991;SDS011;57332;51.320;-0.580;2022-12-18T14:32:21;8.57;;;4.38;;
69991;SDS011;57332;51.320;-0.580;2022-12-18T14:34:50;11.45;;;5.20;;
69991;SDS011;57332;51.320;-0.580;2022-12-18T14:37:20;9.77;;;4.00;;
69991;SDS011;57332;51.320;-0.580;2022-12-18T14:39:58;9.73;;;4.60;;
69991;SDS011;57332;51.320;-0.580;2022-12-18T14:42:30;9.98;;;4.28;;
69991;SDS011;57332;51.320;-0.580;2022-12-18T14:47:43;8.68;;;3.67;;
69991;SDS011;57332;51.320;-0.580;2022-12-18T14:50:13;8.15;;;3.90;;
69991;SDS011;57332;51.320;-0.580;2022-12-18T14:52:40;7.80;;;3.92;;
69991;SDS011;57332;51.320;-0.580;2022-12-18T14:55:14;8.85;;;4.00;;
69991;SDS011;57332;51.320;-0.580;2022-12-18T14:57:42;8.73;;;3.58;;
69991;SDS011;57332;51.320;-0.580;2022-12-18T15:00:21;8.98;;;3.55;;
69991;SDS011;57332;51.320;-0.580;2022-12-18T15:02:49;8.13;;;3.97;;
69991;SDS011;57332;51.320;-0.580;2022-12-18T15:07:44;9.95;;;3.60;;
69991;SDS011;57332;51.320;-0.580;2022-12-18T15:10:14;6.88;;;3.30;;
69991;SDS011;57332;51.320;-0.580;2022-12-18T15:25:41;6.97;;;3.60;;
69991;SDS011;57332;51.320;-0.580;2022-12-18T15:28:24;9.95;;;3.60;;
69991;SDS011;57332;51.320;-0.580;2022-12-18T15:33:23;8.52;;;3.13;;
69991;SDS011;57332;51.320;-0.580;2022-12-18T15:35:58;7.28;;;3.72;;
69991;SDS011;57332;51.320;-0.580;2022-12-18T15:38:25;7.57;;;3.70;;
69991;SDS011;57332;51.320;-0.580;2022-12-18T15:40:55;5.28;;;3.22;;
69991;SDS011;57332;51.320;-0.580;2022-12-18T15:43:22;7.03;;;3.60;;
69991;SDS011;57332;51.320;-0.580;2022-12-18T15:48:28;6.63;;;3.03;;
69991;SDS011;57332;51.320;-0.580;2022-12-18T15:50:56;5.35;;;3.42;;
69991;SDS011;57332;51.320;-0.580;2022-12-18T15:53:27;5.22;;;2.83;;
69991;SDS011;57332;51.320;-0.580;2022-12-18T15:55:55;5.95;;;2.97;;
69991;SDS011;57332;51.320;-0.580;2022-12-18T15:58:49;4.82;;;2.47;;
69991;SDS011;57332;51.320;-0.580;2022-12-18T16:01:16;6.28;;;2.75;;
69991;SDS011;57332;51.320;-0.580;2022-12-18T16:03:43;4.90;;;2.78;;
69991;SDS011;57332;51.320;-0.580;2022-12-18T16:06:12;5.18;;;2.63;;
69991;SDS011;57332;51.320;-0.580;2022-12-18T16:08:38;5.78;;;2.97;;
69991;SDS011;57332;51.320;-0.580;2022-12-18T16:11:16;4.50;;;2.53;;
69991;SDS011;57332;51.320;-0.580;2022-12-18T16:13:46;6.13;;;2.80;;
69991;SDS011;57332;51.320;-0.580;2022-12-18T16:16:13;4.38;;;2.60;;
69991;SDS011;57332;51.320;-0.580;2022-12-18T16:18:40;4.15;;;2.00;;
69991;SDS011;57332;51.320;-0.580;2022-12-18T16:21:07;4.10;;;2.60;;
69991;SDS011;57332;51.320;-0.580;2022-12-18T16:23:34;4.35;;;2.35;;
69991;SDS011;57332;51.320;-0.580;2022-12-18T16:26:01;3.95;;;2.70;;